sensor_id;sensor_type;location;lat;lon;timestamp;pressure;altitude;pressure_sealevel;temperature;humidity
12951;BME280;6540;50.858;7.232;2023-02-21T00:02:14;51810.16;;;-142.34;28.75
12951;BME280;6540;50.858;7.232;2023-02-21T00:04:58;51808.16;;;-142.34;28.54
12951;BME280;6540;50.858;7.232;2023-02-21T00:07:42;51836.38;;;-142.34;28.24
12951;BME280;6540;50.858;7.232;2023-02-21T00:10:26;51826.31;;;-142.34;28.32
12951;BME280;6540;50.858;7.232;2023-02-21T00:13:11;51818.22;;;-142.34;28.26
12951;BME280;6540;50.858;7.232;2023-02-21T00:15:55;51812.19;;;-142.34;28.19
12951;BME280;6540;50.858;7.232;2023-02-21T00:18:39;51866.66;;;-142.34;28.85
12951;BME280;6540;50.858;7.232;2023-02-21T00:21:24;51818.22;;;-142.34;28.44
12951;BME280;6540;50.858;7.232;2023-02-21T00:24:15;51830.34;;;-142.34;28.33
12951;BME280;6540;50.858;7.232;2023-02-21T00:26:59;51858.56;;;-142.34;28.82
12951;BME280;6540;50.858;7.232;2023-02-21T00:29:43;51810.16;;;-142.34;28.73
12951;BME280;6540;50.858;7.232;2023-02-21T00:32:27;51826.31;;;-142.34;28.56
12951;BME280;6540;50.858;7.232;2023-02-21T00:35:11;51808.16;;;-142.34;28.36
12951;BME280;6540;50.858;7.232;2023-02-21T00:37:55;51830.34;;;-142.34;28.29
12951;BME280;6540;50.858;7.232;2023-02-21T00:40:39;51832.34;;;-142.34;28.24
12951;BME280;6540;50.858;7.232;2023-02-21T00:43:32;51804.13;;;-142.34;28.19
12951;BME280;6540;50.858;7.232;2023-02-21T00:46:17;51808.16;;;-142.34;28.44
12951;BME280;6540;50.858;7.232;2023-02-21T00:49:02;51826.31;;;-142.34;28.62
12951;BME280;6540;50.858;7.232;2023-02-21T00:51:47;51820.25;;;-142.34;28.66
12951;BME280;6540;50.858;7.232;2023-02-21T00:54:30;51818.22;;;-142.34;28.70
12951;BME280;6540;50.858;7.232;2023-02-21T00:57:14;51854.53;;;-142.34;29.38
12951;BME280;6540;50.858;7.232;2023-02-21T00:59:58;51798.06;;;-142.34;28.73
12951;BME280;6540;50.858;7.232;2023-02-21T01:02:43;51822.25;;;-142.34;29.31
12951;BME280;6540;50.858;7.232;2023-02-21T01:05:27;51822.25;;;-142.34;28.69
12951;BME280;6540;50.858;7.232;2023-02-21T01:08:12;51814.19;;;-142.34;28.61
12951;BME280;6540;50.858;7.232;2023-02-21T01:10:56;51820.25;;;-142.34;28.95
12951;BME280;6540;50.858;7.232;2023-02-21T01:13:40;51802.09;;;-142.34;28.84
12951;BME280;6540;50.858;7.232;2023-02-21T01:16:30;51826.31;;;-142.34;28.67
12951;BME280;6540;50.858;7.232;2023-02-21T01:19:15;51826.31;;;-142.34;28.98
12951;BME280;6540;50.858;7.232;2023-02-21T01:21:59;51824.28;;;-142.34;28.76
12951;BME280;6540;50.858;7.232;2023-02-21T01:24:44;51818.22;;;-142.34;28.78
12951;BME280;6540;50.858;7.232;2023-02-21T01:27:28;51824.28;;;-142.34;28.77
12951;BME280;6540;50.858;7.232;2023-02-21T01:30:12;51814.19;;;-142.34;28.69
12951;BME280;6540;50.858;7.232;2023-02-21T01:32:55;51777.88;;;-142.34;29.01
12951;BME280;6540;50.858;7.232;2023-02-21T01:35:39;51808.16;;;-142.34;29.00
12951;BME280;6540;50.858;7.232;2023-02-21T01:38:23;51810.16;;;-142.34;28.99
12951;BME280;6540;50.858;7.232;2023-02-21T01:41:10;51794.03;;;-142.34;29.15
12951;BME280;6540;50.858;7.232;2023-02-21T01:44:03;51826.31;;;-142.34;28.57
12951;BME280;6540;50.858;7.232;2023-02-21T01:46:48;51814.19;;;-142.34;28.61
12951;BME280;6540;50.858;7.232;2023-02-21T01:49:34;51812.19;;;-142.34;28.50
12951;BME280;6540;50.858;7.232;2023-02-21T01:52:18;51810.16;;;-142.34;28.56
12951;BME280;6540;50.858;7.232;2023-02-21T01:55:03;51826.31;;;-142.34;28.96
12951;BME280;6540;50.858;7.232;2023-02-21T01:57:47;51816.22;;;-142.34;28.92
12951;BME280;6540;50.858;7.232;2023-02-21T02:00:31;51822.25;;;-142.34;28.78
12951;BME280;6540;50.858;7.232;2023-02-21T02:03:18;51830.34;;;-142.34;28.82
12951;BME280;6540;50.858;7.232;2023-02-21T02:06:08;51808.16;;;-142.34;28.58
12951;BME280;6540;50.858;7.232;2023-02-21T02:08:53;51874.72;;;-142.34;28.87
12951;BME280;6540;50.858;7.232;2023-02-21T02:11:56;51818.22;;;-142.34;29.16
12951;BME280;6540;50.858;7.232;2023-02-21T02:31:17;51822.25;;;-142.34;29.33
12951;BME280;6540;50.858;7.232;2023-02-21T02:37:15;51816.22;;;-142.34;28.72
12951;BME280;6540;50.858;7.232;2023-02-21T02:40:10;51832.34;;;-142.34;29.23
12951;BME280;6540;50.858;7.232;2023-02-21T02:45:52;51840.41;;;-142.34;28.78
12951;BME280;6540;50.858;7.232;2023-02-21T02:48:30;51842.44;;;-142.34;29.17
12951;BME280;6540;50.858;7.232;2023-02-21T02:50:58;51830.34;;;-142.34;29.19
12951;BME280;6540;50.858;7.232;2023-02-21T02:53:27;51806.13;;;-142.34;29.32
12951;BME280;6540;50.858;7.232;2023-02-21T02:56:03;51872.69;;;-142.34;28.66
12951;BME280;6540;50.858;7.232;2023-02-21T02:59:09;51814.19;;;-142.34;29.29
12951;BME280;6540;50.858;7.232;2023-02-21T03:07:04;51852.53;;;-142.34;28.73
12951;BME280;6540;50.858;7.232;2023-02-21T03:09:41;51842.44;;;-142.34;28.47
12951;BME280;6540;50.858;7.232;2023-02-21T03:15:00;51810.16;;;-142.34;28.98
12951;BME280;6540;50.858;7.232;2023-02-21T03:17:29;51818.22;;;-142.34;29.50
12951;BME280;6540;50.858;7.232;2023-02-21T03:19:57;51848.50;;;-142.34;29.70
12951;BME280;6540;50.858;7.232;2023-02-21T03:22:26;51828.31;;;-142.34;29.12
12951;BME280;6540;50.858;7.232;2023-02-21T03:24:56;51836.38;;;-142.34;28.80
12951;BME280;6540;50.858;7.232;2023-02-21T03:27:23;51806.13;;;-142.34;28.64
12951;BME280;6540;50.858;7.232;2023-02-21T03:29:51;51826.31;;;-142.34;28.64
12951;BME280;6540;50.858;7.232;2023-02-21T03:34:50;51852.53;;;-142.34;28.64
12951;BME280;6540;50.858;7.232;2023-02-21T03:39:56;51814.19;;;-142.34;28.83
12951;BME280;6540;50.858;7.232;2023-02-21T03:42:21;51806.13;;;-142.34;28.78
12951;BME280;6540;50.858;7.232;2023-02-21T03:44:47;51830.34;;;-142.34;28.66
12951;BME280;6540;50.858;7.232;2023-02-21T03:47:12;51846.47;;;-142.34;29.00
12951;BME280;6540;50.858;7.232;2023-02-21T03:49:37;51830.34;;;-142.34;28.85
12951;BME280;6540;50.858;7.232;2023-02-21T03:52:03;51814.19;;;-142.34;28.60
12951;BME280;6540;50.858;7.232;2023-02-21T03:54:28;51812.19;;;-142.34;28.81
12951;BME280;6540;50.858;7.232;2023-02-21T03:56:54;51832.34;;;-142.34;28.81
12951;BME280;6540;50.858;7.232;2023-02-21T03:59:19;51830.34;;;-142.34;28.54
12951;BME280;6540;50.858;7.232;2023-02-21T04:01:44;51818.22;;;-142.34;28.49
12951;BME280;6540;50.858;7.232;2023-02-21T04:04:10;51846.47;;;-142.34;29.06
12951;BME280;6540;50.858;7.232;2023-02-21T04:06:35;51854.53;;;-142.34;28.97
12951;BME280;6540;50.858;7.232;2023-02-21T04:09:00;51858.56;;;-142.34;29.21
12951;BME280;6540;50.858;7.232;2023-02-21T04:11:26;51836.38;;;-142.34;29.37
12951;BME280;6540;50.858;7.232;2023-02-21T04:13:51;51882.78;;;-142.34;28.90
12951;BME280;6540;50.858;7.232;2023-02-21T04:16:17;51802.09;;;-142.34;28.97
12951;BME280;6540;50.858;7.232;2023-02-21T04:18:42;51824.28;;;-142.34;29.01
12951;BME280;6540;50.858;7.232;2023-02-21T04:21:07;51826.31;;;-142.34;29.17
12951;BME280;6540;50.858;7.232;2023-02-21T04:23:33;51846.47;;;-142.34;28.83
12951;BME280;6540;50.858;7.232;2023-02-21T04:25:58;51868.66;;;-142.34;28.88
12951;BME280;6540;50.858;7.232;2023-02-21T04:28:23;51838.41;;;-142.34;28.95
12951;BME280;6540;50.858;7.232;2023-02-21T04:30:49;51852.53;;;-142.34;29.51
12951;BME280;6540;50.858;7.232;2023-02-21T04:33:14;51858.56;;;-142.34;28.86
12951;BME280;6540;50.858;7.232;2023-02-21T04:35:39;51850.50;;;-142.34;28.92
12951;BME280;6540;50.858;7.232;2023-02-21T04:38:05;51846.47;;;-142.34;29.55
12951;BME280;6540;50.858;7.232;2023-02-21T04:40:30;51840.41;;;-142.34;29.36
12951;BME280;6540;50.858;7.232;2023-02-21T04:42:56;51806.13;;;-142.34;29.38
12951;BME280;6540;50.858;7.232;2023-02-21T04:45:21;51814.19;;;-142.34;29.34
12951;BME280;6540;50.858;7.232;2023-02-21T04:47:46;51818.22;;;-142.34;29.63
12951;BME280;6540;50.858;7.232;2023-02-21T04:50:12;51840.41;;;-142.34;29.04
12951;BME280;6540;50.858;7.232;2023-02-21T04:52:37;51838.41;;;-142.34;29.17
12951;BME280;6540;50.858;7.232;2023-02-21T04:55:06;51846.47;;;-142.34;29.46
12951;BME280;6540;50.858;7.232;2023-02-21T04:57:31;51830.34;;;-142.34;29.21
12951;BME280;6540;50.858;7.232;2023-02-21T04:59:58;51854.53;;;-142.34;29.18
12951;BME280;6540;50.858;7.232;2023-02-21T05:02:24;51810.16;;;-142.34;29.10
12951;BME280;6540;50.858;7.232;2023-02-21T05:04:49;51842.44;;;-142.34;29.47
12951;BME280;6540;50.858;7.232;2023-02-21T05:07:15;51862.63;;;-142.34;29.40
12951;BME280;6540;50.858;7.232;2023-02-21T05:09:40;51844.47;;;-142.34;29.04
12951;BME280;6540;50.858;7.232;2023-02-21T05:12:05;51826.31;;;-142.34;28.79
12951;BME280;6540;50.858;7.232;2023-02-21T05:14:36;51800.06;;;-142.34;29.01
12951;BME280;6540;50.858;7.232;2023-02-21T05:17:02;51836.38;;;-142.34;28.92
12951;BME280;6540;50.858;7.232;2023-02-21T05:19:27;51818.22;;;-142.34;28.83
12951;BME280;6540;50.858;7.232;2023-02-21T05:21:57;51814.19;;;-142.34;28.90
12951;BME280;6540;50.858;7.232;2023-02-21T05:24:25;51826.31;;;-142.34;29.12
12951;BME280;6540;50.858;7.232;2023-02-21T05:26:51;51802.09;;;-142.34;29.04
12951;BME280;6540;50.858;7.232;2023-02-21T05:29:17;51838.41;;;-142.34;28.91
12951;BME280;6540;50.858;7.232;2023-02-21T05:31:43;51816.22;;;-142.34;29.29
12951;BME280;6540;50.858;7.232;2023-02-21T05:34:09;51838.41;;;-142.34;29.78
12951;BME280;6540;50.858;7.232;2023-02-21T05:36:34;51856.56;;;-142.34;29.64
12951;BME280;6540;50.858;7.232;2023-02-21T05:39:00;51854.53;;;-142.34;29.26
12951;BME280;6540;50.858;7.232;2023-02-21T05:41:25;51846.47;;;-142.34;29.02
12951;BME280;6540;50.858;7.232;2023-02-21T05:43:50;51830.34;;;-142.34;28.89
12951;BME280;6540;50.858;7.232;2023-02-21T05:46:28;51838.41;;;-142.34;28.87
12951;BME280;6540;50.858;7.232;2023-02-21T05:48:55;51812.19;;;-142.34;28.66
12951;BME280;6540;50.858;7.232;2023-02-21T05:51:21;51824.28;;;-142.34;29.09
12951;BME280;6540;50.858;7.232;2023-02-21T05:53:47;51790.00;;;-142.34;28.73
12951;BME280;6540;50.858;7.232;2023-02-21T05:56:13;51822.25;;;-142.34;28.93
12951;BME280;6540;50.858;7.232;2023-02-21T05:58:39;51790.00;;;-142.34;29.08
12951;BME280;6540;50.858;7.232;2023-02-21T06:01:05;51816.22;;;-142.34;29.24
12951;BME280;6540;50.858;7.232;2023-02-21T06:03:30;51820.25;;;-142.34;28.95
12951;BME280;6540;50.858;7.232;2023-02-21T06:05:57;51828.31;;;-142.34;29.57
12951;BME280;6540;50.858;7.232;2023-02-21T06:08:22;51854.53;;;-142.34;30.44
12951;BME280;6540;50.858;7.232;2023-02-21T06:10:47;51858.56;;;-142.34;30.22
12951;BME280;6540;50.858;7.232;2023-02-21T06:13:13;51862.63;;;-142.34;29.24
12951;BME280;6540;50.858;7.232;2023-02-21T06:15:38;51816.22;;;-142.34;28.80
12951;BME280;6540;50.858;7.232;2023-02-21T06:18:03;51854.53;;;-142.34;29.12
12951;BME280;6540;50.858;7.232;2023-02-21T06:20:29;51822.25;;;-142.34;29.14
12951;BME280;6540;50.858;7.232;2023-02-21T06:22:54;51820.25;;;-142.34;28.95
12951;BME280;6540;50.858;7.232;2023-02-21T06:25:19;51822.25;;;-142.34;28.82
12951;BME280;6540;50.858;7.232;2023-02-21T06:27:45;51822.25;;;-142.34;28.49
12951;BME280;6540;50.858;7.232;2023-02-21T06:30:11;51826.31;;;-142.34;28.78
12951;BME280;6540;50.858;7.232;2023-02-21T06:32:36;51814.19;;;-142.34;29.01
12951;BME280;6540;50.858;7.232;2023-02-21T06:35:02;51818.22;;;-142.34;29.00
12951;BME280;6540;50.858;7.232;2023-02-21T06:37:28;51830.34;;;-142.34;28.78
12951;BME280;6540;50.858;7.232;2023-02-21T06:39:53;51836.38;;;-142.34;28.92
12951;BME280;6540;50.858;7.232;2023-02-21T06:42:19;51812.19;;;-142.34;29.14
12951;BME280;6540;50.858;7.232;2023-02-21T06:44:46;51820.25;;;-142.34;29.15
12951;BME280;6540;50.858;7.232;2023-02-21T06:47:12;51810.16;;;-142.34;29.28
12951;BME280;6540;50.858;7.232;2023-02-21T06:49:38;51818.22;;;-142.34;29.24
12951;BME280;6540;50.858;7.232;2023-02-21T06:52:04;51832.34;;;-142.34;29.00
12951;BME280;6540;50.858;7.232;2023-02-21T06:54:30;51822.25;;;-142.34;28.91
12951;BME280;6540;50.858;7.232;2023-02-21T06:56:55;51810.16;;;-142.34;28.94
12951;BME280;6540;50.858;7.232;2023-02-21T06:59:23;51820.25;;;-142.34;28.89
12951;BME280;6540;50.858;7.232;2023-02-21T07:01:49;51806.13;;;-142.34;28.83
12951;BME280;6540;50.858;7.232;2023-02-21T07:04:14;51810.16;;;-142.34;28.58
12951;BME280;6540;50.858;7.232;2023-02-21T07:06:40;51773.84;;;-142.34;28.87
12951;BME280;6540;50.858;7.232;2023-02-21T07:09:05;51810.16;;;-142.34;28.92
12951;BME280;6540;50.858;7.232;2023-02-21T07:11:33;51806.13;;;-142.34;28.95
12951;BME280;6540;50.858;7.232;2023-02-21T07:13:59;51818.22;;;-142.34;28.82
12951;BME280;6540;50.858;7.232;2023-02-21T07:16:24;51798.06;;;-142.34;29.00
12951;BME280;6540;50.858;7.232;2023-02-21T07:18:50;51790.00;;;-142.34;28.62
12951;BME280;6540;50.858;7.232;2023-02-21T07:21:17;51790.00;;;-142.34;28.77
12951;BME280;6540;50.858;7.232;2023-02-21T07:23:44;51816.22;;;-142.34;28.83
12951;BME280;6540;50.858;7.232;2023-02-21T07:26:10;51820.25;;;-142.34;28.47
12951;BME280;6540;50.858;7.232;2023-02-21T07:28:35;51814.19;;;-142.34;28.90
12951;BME280;6540;50.858;7.232;2023-02-21T07:31:01;51826.31;;;-142.34;28.92
12951;BME280;6540;50.858;7.232;2023-02-21T07:33:26;51765.78;;;-142.34;28.69
12951;BME280;6540;50.858;7.232;2023-02-21T07:35:52;51820.25;;;-142.34;28.78
12951;BME280;6540;50.858;7.232;2023-02-21T07:38:27;51822.25;;;-142.34;29.14
12951;BME280;6540;50.858;7.232;2023-02-21T07:40:54;51822.25;;;-142.34;29.53
12951;BME280;6540;50.858;7.232;2023-02-21T07:43:20;51814.19;;;-142.34;28.86
12951;BME280;6540;50.858;7.232;2023-02-21T07:45:46;51822.25;;;-142.34;30.15
12951;BME280;6540;50.858;7.232;2023-02-21T07:48:11;51868.66;;;-142.34;30.05
12951;BME280;6540;50.858;7.232;2023-02-21T07:50:43;51785.94;;;-142.34;29.04
12951;BME280;6540;50.858;7.232;2023-02-21T07:53:10;51814.19;;;-142.34;28.36
12951;BME280;6540;50.858;7.232;2023-02-21T07:55:35;51790.00;;;-142.34;28.46
12951;BME280;6540;50.858;7.232;2023-02-21T07:58:01;51806.13;;;-142.34;28.42
12951;BME280;6540;50.858;7.232;2023-02-21T08:00:27;51842.44;;;-142.34;29.82
12951;BME280;6540;50.858;7.232;2023-02-21T08:02:52;51838.41;;;-142.34;29.56
12951;BME280;6540;50.858;7.232;2023-02-21T08:05:18;51822.25;;;-142.34;29.50
12951;BME280;6540;50.858;7.232;2023-02-21T08:07:44;51806.13;;;-142.34;28.91
12951;BME280;6540;50.858;7.232;2023-02-21T08:10:11;51826.31;;;-142.34;29.38
12951;BME280;6540;50.858;7.232;2023-02-21T08:12:37;51812.19;;;-142.34;29.60
12951;BME280;6540;50.858;7.232;2023-02-21T08:15:02;51810.16;;;-142.34;28.24
12951;BME280;6540;50.858;7.232;2023-02-21T08:17:29;51800.06;;;-142.34;29.17
12951;BME280;6540;50.858;7.232;2023-02-21T08:19:54;51866.66;;;-142.34;29.76
12951;BME280;6540;50.858;7.232;2023-02-21T08:22:20;51838.41;;;-142.34;28.89
12951;BME280;6540;50.858;7.232;2023-02-21T08:24:48;51848.50;;;-142.34;29.70
12951;BME280;6540;50.858;7.232;2023-02-21T08:27:14;51842.44;;;-142.34;29.74
12951;BME280;6540;50.858;7.232;2023-02-21T08:29:39;51848.50;;;-142.34;28.97
12951;BME280;6540;50.858;7.232;2023-02-21T08:32:05;51838.41;;;-142.34;28.66
12951;BME280;6540;50.858;7.232;2023-02-21T08:34:30;51818.22;;;-142.34;28.12
12951;BME280;6540;50.858;7.232;2023-02-21T08:36:56;51828.31;;;-142.34;29.41
12951;BME280;6540;50.858;7.232;2023-02-21T08:39:21;51854.53;;;-142.34;29.10
12951;BME280;6540;50.858;7.232;2023-02-21T08:41:46;51818.22;;;-142.34;29.11
12951;BME280;6540;50.858;7.232;2023-02-21T08:44:17;51830.34;;;-142.34;28.26
12951;BME280;6540;50.858;7.232;2023-02-21T08:46:43;51822.25;;;-142.34;28.77
12951;BME280;6540;50.858;7.232;2023-02-21T08:49:08;51790.00;;;-142.34;28.51
12951;BME280;6540;50.858;7.232;2023-02-21T08:51:34;51842.44;;;-142.34;28.95
12951;BME280;6540;50.858;7.232;2023-02-21T08:54:00;51790.00;;;-142.34;28.32
12951;BME280;6540;50.858;7.232;2023-02-21T08:56:27;51785.94;;;-142.34;28.99
12951;BME280;6540;50.858;7.232;2023-02-21T08:58:53;51844.47;;;-142.34;29.10
12951;BME280;6540;50.858;7.232;2023-02-21T09:01:22;51824.28;;;-142.34;28.57
12951;BME280;6540;50.858;7.232;2023-02-21T09:03:48;51806.13;;;-142.34;28.23
12951;BME280;6540;50.858;7.232;2023-02-21T09:06:14;51816.22;;;-142.34;29.31
12951;BME280;6540;50.858;7.232;2023-02-21T09:08:40;51862.63;;;-142.34;29.08
12951;BME280;6540;50.858;7.232;2023-02-21T09:11:07;51794.03;;;-142.34;29.89
12951;BME280;6540;50.858;7.232;2023-02-21T09:13:33;51804.13;;;-142.34;29.32
12951;BME280;6540;50.858;7.232;2023-02-21T09:15:59;51814.19;;;-142.34;29.18
12951;BME280;6540;50.858;7.232;2023-02-21T09:18:26;51842.44;;;-142.34;29.85
12951;BME280;6540;50.858;7.232;2023-02-21T09:20:51;51834.38;;;-142.34;29.81
12951;BME280;6540;50.858;7.232;2023-02-21T09:23:18;51830.34;;;-142.34;29.75
12951;BME280;6540;50.858;7.232;2023-02-21T09:25:45;51838.41;;;-142.34;29.03
12951;BME280;6540;50.858;7.232;2023-02-21T09:28:10;51814.19;;;-142.34;28.21
12951;BME280;6540;50.858;7.232;2023-02-21T09:30:36;51830.34;;;-142.34;28.01
12951;BME280;6540;50.858;7.232;2023-02-21T09:33:01;51830.34;;;-142.34;28.44
12951;BME280;6540;50.858;7.232;2023-02-21T09:35:26;51794.03;;;-142.34;27.61
12951;BME280;6540;50.858;7.232;2023-02-21T09:37:56;51814.19;;;-142.34;28.14
12951;BME280;6540;50.858;7.232;2023-02-21T09:43:05;51802.09;;;-142.34;28.75
12951;BME280;6540;50.858;7.232;2023-02-21T09:45:35;51781.91;;;-142.34;28.57
12951;BME280;6540;50.858;7.232;2023-02-21T09:48:10;51802.09;;;-142.34;28.44
12951;BME280;6540;50.858;7.232;2023-02-21T09:50:47;51792.00;;;-142.34;28.52
12951;BME280;6540;50.858;7.232;2023-02-21T09:53:16;51800.06;;;-142.34;28.25
12951;BME280;6540;50.858;7.232;2023-02-21T09:55:43;51765.78;;;-142.34;27.81
12951;BME280;6540;50.858;7.232;2023-02-21T09:58:14;51796.03;;;-142.34;28.43
12951;BME280;6540;50.858;7.232;2023-02-21T10:00:40;51767.81;;;-142.34;28.05
12951;BME280;6540;50.858;7.232;2023-02-21T10:03:44;51753.69;;;-142.34;28.50
12951;BME280;6540;50.858;7.232;2023-02-21T10:11:36;51794.03;;;-142.34;28.71
12951;BME280;6540;50.858;7.232;2023-02-21T10:17:03;51785.94;;;-142.34;29.03
12951;BME280;6540;50.858;7.232;2023-02-21T10:19:37;51792.00;;;-142.34;29.42
12951;BME280;6540;50.858;7.232;2023-02-21T10:22:32;51781.91;;;-142.34;28.46
12951;BME280;6540;50.858;7.232;2023-02-21T10:25:00;51777.88;;;-142.34;29.27
12951;BME280;6540;50.858;7.232;2023-02-21T10:27:30;51818.22;;;-142.34;29.11
12951;BME280;6540;50.858;7.232;2023-02-21T10:30:06;51794.03;;;-142.34;28.46
12951;BME280;6540;50.858;7.232;2023-02-21T10:32:35;51781.91;;;-142.34;28.55
12951;BME280;6540;50.858;7.232;2023-02-21T10:35:01;51794.03;;;-142.34;28.22
12951;BME280;6540;50.858;7.232;2023-02-21T10:37:39;51779.91;;;-142.34;28.05
12951;BME280;6540;50.858;7.232;2023-02-21T10:40:45;51775.88;;;-142.34;27.95
12951;BME280;6540;50.858;7.232;2023-02-21T10:43:31;51781.91;;;-142.34;28.00
12951;BME280;6540;50.858;7.232;2023-02-21T10:46:22;51781.91;;;-142.34;28.95
12951;BME280;6540;50.858;7.232;2023-02-21T10:48:51;51763.75;;;-142.34;28.11
12951;BME280;6540;50.858;7.232;2023-02-21T10:51:31;51771.84;;;-142.34;27.77
12951;BME280;6540;50.858;7.232;2023-02-21T10:54:23;51745.59;;;-142.34;27.99
12951;BME280;6540;50.858;7.232;2023-02-21T10:56:51;51779.91;;;-142.34;28.85
12951;BME280;6540;50.858;7.232;2023-02-21T10:59:29;51771.84;;;-142.34;27.85
12951;BME280;6540;50.858;7.232;2023-02-21T11:01:55;51737.53;;;-142.34;27.72
12951;BME280;6540;50.858;7.232;2023-02-21T11:04:25;51717.38;;;-142.34;28.10
12951;BME280;6540;50.858;7.232;2023-02-21T11:07:01;51765.78;;;-142.34;29.46
12951;BME280;6540;50.858;7.232;2023-02-21T11:09:41;51753.69;;;-142.34;29.23
12951;BME280;6540;50.858;7.232;2023-02-21T11:12:24;51818.22;;;-142.34;30.75
12951;BME280;6540;50.858;7.232;2023-02-21T11:17:29;51773.84;;;-142.34;28.18
12951;BME280;6540;50.858;7.232;2023-02-21T11:25:02;51731.50;;;-142.34;28.13
12951;BME280;6540;50.858;7.232;2023-02-21T11:27:32;51757.72;;;-142.34;28.90
12951;BME280;6540;50.858;7.232;2023-02-21T11:29:58;51757.72;;;-142.34;29.14
12951;BME280;6540;50.858;7.232;2023-02-21T11:35:22;51745.59;;;-142.34;27.28
12951;BME280;6540;50.858;7.232;2023-02-21T11:37:49;51777.88;;;-142.34;28.10
12951;BME280;6540;50.858;7.232;2023-02-21T11:45:41;51769.81;;;-142.34;28.64
12951;BME280;6540;50.858;7.232;2023-02-21T11:48:13;51761.75;;;-142.34;28.83
12951;BME280;6540;50.858;7.232;2023-02-21T11:50:47;51792.00;;;-142.34;29.08
12951;BME280;6540;50.858;7.232;2023-02-21T11:53:25;51775.88;;;-142.34;29.47
12951;BME280;6540;50.858;7.232;2023-02-21T11:56:51;51785.94;;;-142.34;29.62
12951;BME280;6540;50.858;7.232;2023-02-21T12:00:14;51800.06;;;-142.34;29.09
12951;BME280;6540;50.858;7.232;2023-02-21T12:30:08;51773.84;;;-142.34;28.46
12951;BME280;6540;50.858;7.232;2023-02-21T12:32:50;51779.91;;;-142.34;30.03
12951;BME280;6540;50.858;7.232;2023-02-21T12:35:49;51785.94;;;-142.34;29.11
12951;BME280;6540;50.858;7.232;2023-02-21T12:39:02;51777.88;;;-142.34;28.62
12951;BME280;6540;50.858;7.232;2023-02-21T12:41:51;51769.81;;;-142.34;28.03
12951;BME280;6540;50.858;7.232;2023-02-21T12:47:13;51743.59;;;-142.34;27.54
12951;BME280;6540;50.858;7.232;2023-02-21T12:50:32;51733.50;;;-142.34;27.87
12951;BME280;6540;50.858;7.232;2023-02-21T12:52:57;51741.56;;;-142.34;27.66
12951;BME280;6540;50.858;7.232;2023-02-21T12:55:34;51737.53;;;-142.34;28.15
12951;BME280;6540;50.858;7.232;2023-02-21T12:58:24;51769.81;;;-142.34;27.95
12951;BME280;6540;50.858;7.232;2023-02-21T13:06:29;51733.50;;;-142.34;28.95
12951;BME280;6540;50.858;7.232;2023-02-21T13:11:58;51725.44;;;-142.34;29.12
12951;BME280;6540;50.858;7.232;2023-02-21T13:14:31;51705.25;;;-142.34;27.59
12951;BME280;6540;50.858;7.232;2023-02-21T13:16:58;51711.31;;;-142.34;28.22
12951;BME280;6540;50.858;7.232;2023-02-21T13:19:24;51723.41;;;-142.34;27.10
12951;BME280;6540;50.858;7.232;2023-02-21T13:28:22;51693.16;;;-142.34;27.06
12951;BME280;6540;50.858;7.232;2023-02-21T13:30:59;51679.03;;;-142.34;26.78
12951;BME280;6540;50.858;7.232;2023-02-21T13:33:27;51689.13;;;-142.34;27.51
12951;BME280;6540;50.858;7.232;2023-02-21T13:35:57;51743.59;;;-142.34;28.11
12951;BME280;6540;50.858;7.232;2023-02-21T13:38:26;51725.44;;;-142.34;28.58
12951;BME280;6540;50.858;7.232;2023-02-21T13:41:01;51677.03;;;-142.34;28.68
12951;BME280;6540;50.858;7.232;2023-02-21T13:43:32;51717.38;;;-142.34;29.17
12951;BME280;6540;50.858;7.232;2023-02-21T14:21:35;51652.81;;;-142.34;25.70
12951;BME280;6540;50.858;7.232;2023-02-21T14:24:20;51644.75;;;-142.34;26.52
12951;BME280;6540;50.858;7.232;2023-02-21T14:29:26;51662.91;;;-142.34;26.30
12951;BME280;6540;50.858;7.232;2023-02-21T14:31:56;51660.88;;;-142.34;25.76
12951;BME280;6540;50.858;7.232;2023-02-21T14:36:53;51652.81;;;-142.34;26.49
12951;BME280;6540;50.858;7.232;2023-02-21T14:39:22;51644.75;;;-142.34;26.20
12951;BME280;6540;50.858;7.232;2023-02-21T15:06:44;51717.38;;;-142.34;27.32
12951;BME280;6540;50.858;7.232;2023-02-21T15:09:19;51693.16;;;-142.34;27.20
12951;BME280;6540;50.858;7.232;2023-02-21T15:11:46;51677.03;;;-142.34;27.12
12951;BME280;6540;50.858;7.232;2023-02-21T15:14:22;51731.50;;;-142.34;27.67
12951;BME280;6540;50.858;7.232;2023-02-21T15:16:51;51705.25;;;-142.34;27.39
12951;BME280;6540;50.858;7.232;2023-02-21T15:19:43;51717.38;;;-142.34;28.75
12951;BME280;6540;50.858;7.232;2023-02-21T15:22:25;51725.44;;;-142.34;27.25
12951;BME280;6540;50.858;7.232;2023-02-21T15:27:58;51717.38;;;-142.34;28.17
12951;BME280;6540;50.858;7.232;2023-02-21T15:30:31;51765.78;;;-142.34;28.67
12951;BME280;6540;50.858;7.232;2023-02-21T15:33:18;51749.66;;;-142.34;27.99
12951;BME280;6540;50.858;7.232;2023-02-21T15:46:32;51719.38;;;-142.34;28.11
12951;BME280;6540;50.858;7.232;2023-02-21T15:49:03;51745.59;;;-142.34;28.74
12951;BME280;6540;50.858;7.232;2023-02-21T15:51:29;51727.44;;;-142.34;28.97
12951;BME280;6540;50.858;7.232;2023-02-21T15:54:09;51725.44;;;-142.34;28.11
12951;BME280;6540;50.858;7.232;2023-02-21T15:56:35;51751.66;;;-142.34;28.17
12951;BME280;6540;50.858;7.232;2023-02-21T16:01:35;51757.72;;;-142.34;28.61
12951;BME280;6540;50.858;7.232;2023-02-21T16:04:18;51745.59;;;-142.34;29.12
12951;BME280;6540;50.858;7.232;2023-02-21T16:06:47;51767.81;;;-142.34;28.99
12951;BME280;6540;50.858;7.232;2023-02-21T16:11:47;51757.72;;;-142.34;27.41
12951;BME280;6540;50.858;7.232;2023-02-21T16:17:21;51777.88;;;-142.34;28.61
12951;BME280;6540;50.858;7.232;2023-02-21T16:19:53;51753.69;;;-142.34;28.32
12951;BME280;6540;50.858;7.232;2023-02-21T16:25:24;51747.63;;;-142.34;29.05
12951;BME280;6540;50.858;7.232;2023-02-21T16:27:55;51761.75;;;-142.34;27.68
12951;BME280;6540;50.858;7.232;2023-02-21T16:30:25;51765.78;;;-142.34;29.00
12951;BME280;6540;50.858;7.232;2023-02-21T16:32:53;51790.00;;;-142.34;28.83
12951;BME280;6540;50.858;7.232;2023-02-21T16:35:21;51751.66;;;-142.34;27.84
12951;BME280;6540;50.858;7.232;2023-02-21T16:37:53;51773.84;;;-142.34;27.81